createdAt,value
2022-10-05T00:02:24.454Z,13.67
2022-10-05T00:04:56.566Z,15.23
2022-10-05T00:07:24.778Z,17.20
2022-10-05T00:09:59.529Z,14.57
2022-10-05T00:12:29.978Z,10.20
2022-10-05T00:15:00.861Z,16.10
2022-10-05T00:17:30.395Z,16.03
2022-10-05T00:19:57.251Z,14.03
2022-10-05T00:22:33.406Z,20.23
2022-10-05T00:25:02.659Z,12.07
2022-10-05T00:27:36.812Z,13.40
2022-10-05T00:30:17.059Z,16.83
2022-10-05T00:32:44.668Z,14.17
2022-10-05T00:35:12.473Z,13.83
2022-10-05T00:37:39.619Z,18.53
2022-10-05T00:40:16.060Z,17.37
2022-10-05T00:42:57.941Z,17.37
2022-10-05T00:45:33.454Z,14.03
2022-10-05T00:48:30.786Z,13.77
2022-10-05T00:51:28.212Z,12.63
2022-10-05T00:54:09.087Z,16.73
2022-10-05T00:56:54.030Z,17.83
2022-10-05T00:59:43.448Z,21.87
2022-10-05T01:02:25.631Z,14.00
2022-10-05T01:05:25.865Z,16.03
2022-10-05T01:08:18.201Z,18.60
2022-10-05T01:11:02.261Z,17.03
2022-10-05T01:13:39.093Z,13.97
2022-10-05T01:16:19.508Z,18.20
2022-10-05T01:19:19.932Z,18.77
2022-10-05T01:22:19.113Z,13.60
2022-10-05T01:25:21.499Z,20.00
2022-10-05T01:28:10.184Z,17.20
2022-10-05T01:31:09.245Z,17.67
2022-10-05T01:34:17.507Z,16.17
2022-10-05T01:36:49.813Z,17.03
2022-10-05T01:39:57.027Z,15.23
2022-10-05T01:42:45.632Z,15.27
2022-10-05T01:45:32.512Z,16.30
2022-10-05T01:48:15.063Z,16.23
2022-10-05T01:50:56.160Z,17.57
2022-10-05T01:53:35.325Z,19.20
2022-10-05T01:56:34.114Z,16.33
2022-10-05T01:59:16.284Z,14.57
2022-10-05T02:02:05.643Z,16.80
2022-10-05T02:05:04.164Z,17.87
2022-10-05T02:07:40.359Z,12.93
2022-10-05T02:10:55.807Z,20.00
2022-10-05T02:13:44.119Z,18.93
2022-10-05T02:16:18.927Z,19.27
2022-10-05T02:19:28.899Z,15.23
2022-10-05T02:22:14.880Z,14.47
2022-10-05T02:24:48.871Z,16.07
2022-10-05T02:27:21.351Z,21.57
2022-10-05T02:29:49.287Z,16.80
2022-10-05T02:32:23.995Z,17.03
2022-10-05T02:34:51.189Z,18.77
2022-10-05T02:37:39.809Z,19.17
2022-10-05T02:40:28.152Z,16.83
2022-10-05T02:43:22.447Z,13.27
2022-10-05T02:46:08.524Z,19.17
2022-10-05T02:48:50.904Z,18.17
2022-10-05T02:51:28.081Z,16.67
2022-10-05T02:53:58.192Z,20.40
2022-10-05T02:56:49.996Z,14.73
2022-10-05T02:59:25.930Z,12.53
2022-10-05T03:02:23.012Z,18.87
2022-10-05T03:05:20.699Z,16.37
2022-10-05T03:07:57.048Z,14.77
2022-10-05T03:10:51.597Z,16.77
2022-10-05T03:13:43.445Z,16.53
2022-10-05T03:16:31.878Z,12.33
2022-10-05T03:19:22.420Z,18.67
2022-10-05T03:22:08.405Z,14.90
2022-10-05T03:24:50.832Z,12.67
2022-10-05T03:27:36.590Z,13.77
2022-10-05T03:30:15.371Z,15.97
2022-10-05T03:33:04.583Z,14.77
2022-10-05T03:35:47.786Z,11.43
2022-10-05T03:38:33.183Z,15.33
2022-10-05T03:41:11.483Z,18.57
2022-10-05T03:44:00.472Z,17.10
2022-10-05T03:46:46.002Z,17.13
2022-10-05T03:49:49.918Z,12.97
2022-10-05T03:52:23.222Z,13.00
2022-10-05T03:55:36.330Z,12.60
2022-10-05T03:58:10.428Z,12.20
2022-10-05T04:00:40.461Z,14.60
2022-10-05T04:03:32.307Z,13.13
2022-10-05T04:06:05.275Z,12.77
2022-10-05T04:08:59.242Z,11.43
2022-10-05T04:11:39.435Z,12.03
2022-10-05T04:14:46.854Z,13.70
2022-10-05T04:17:17.800Z,13.37
2022-10-05T04:19:56.459Z,13.13
2022-10-05T04:22:30.298Z,13.67
2022-10-05T04:25:21.516Z,12.03
2022-10-05T04:27:54.868Z,12.70
2022-10-05T04:30:24.631Z,15.43
2022-10-05T04:32:59.708Z,11.97
2022-10-05T04:35:41.108Z,14.60
2022-10-05T04:38:27.286Z,21.07
2022-10-05T04:41:30.404Z,13.97
2022-10-05T04:44:35.741Z,13.97
2022-10-05T04:47:13.237Z,14.93
2022-10-05T04:49:55.438Z,11.60
2022-10-05T04:52:28.607Z,11.87
2022-10-05T04:55:04.471Z,11.20
2022-10-05T04:58:00.317Z,12.27
2022-10-05T05:00:52.730Z,16.47
2022-10-05T05:04:07.360Z,17.20
2022-10-05T05:06:37.126Z,13.87
2022-10-05T05:09:37.710Z,13.60
2022-10-05T05:12:39.981Z,14.07
2022-10-05T05:15:37.452Z,16.70
2022-10-05T05:18:26.908Z,15.33
2022-10-05T05:21:12.301Z,14.30
2022-10-05T05:24:08.638Z,13.87
2022-10-05T05:27:11.725Z,15.60
2022-10-05T05:29:44.370Z,10.93
2022-10-05T05:32:32.230Z,12.40
2022-10-05T05:35:35.726Z,11.27
2022-10-05T05:38:14.173Z,13.17
2022-10-05T05:40:55.027Z,10.27
2022-10-05T05:43:32.842Z,14.40
2022-10-05T05:46:00.762Z,9.40
2022-10-05T05:48:40.440Z,10.03
2022-10-05T05:51:19.204Z,11.30
2022-10-05T05:53:52.558Z,10.77
2022-10-05T05:56:34.570Z,10.00
2022-10-05T05:59:24.486Z,12.93
2022-10-05T06:02:07.045Z,11.10
2022-10-05T06:04:43.730Z,14.00
2022-10-05T06:07:16.477Z,30.00
2022-10-05T06:10:15.474Z,17.50
2022-10-05T06:12:47.352Z,11.50
2022-10-05T06:15:21.581Z,14.93
2022-10-05T06:17:52.856Z,16.83
2022-10-05T06:20:33.399Z,9.13
2022-10-05T06:23:03.401Z,11.90
2022-10-05T06:25:47.995Z,9.23
2022-10-05T06:28:18.582Z,9.60
2022-10-05T06:31:05.611Z,11.07
2022-10-05T06:33:51.837Z,10.53
2022-10-05T06:36:46.496Z,12.97
2022-10-05T06:39:16.625Z,10.43
2022-10-05T06:42:08.134Z,11.37
2022-10-05T06:44:46.321Z,14.30
2022-10-05T06:47:22.174Z,11.80
2022-10-05T06:49:58.360Z,14.43
2022-10-05T06:52:35.776Z,14.23
2022-10-05T06:55:05.443Z,10.33
2022-10-05T06:57:32.322Z,13.13
2022-10-05T07:00:06.159Z,12.90
2022-10-05T07:02:41.306Z,12.23
2022-10-05T07:05:13.337Z,10.73
2022-10-05T07:07:53.073Z,9.23
2022-10-05T07:10:38.206Z,9.93
2022-10-05T07:13:23.767Z,8.17
2022-10-05T07:16:23.505Z,12.13
2022-10-05T07:18:53.066Z,9.37
2022-10-05T07:21:44.151Z,7.73
2022-10-05T07:24:29.302Z,10.20
2022-10-05T07:27:13.062Z,9.67
2022-10-05T07:29:53.851Z,7.80
2022-10-05T07:32:40.043Z,11.00
2022-10-05T07:35:33.876Z,10.30
2022-10-05T07:38:08.130Z,12.97
2022-10-05T07:40:53.799Z,9.57
2022-10-05T07:43:29.249Z,6.57
2022-10-05T07:46:11.534Z,9.27
2022-10-05T07:48:50.443Z,9.87
2022-10-05T07:51:20.351Z,9.13
2022-10-05T07:54:07.517Z,7.27
2022-10-05T07:56:45.073Z,9.67
2022-10-05T07:59:14.743Z,12.10
2022-10-05T08:01:46.285Z,9.83
2022-10-05T08:04:36.036Z,8.70
2022-10-05T08:07:11.783Z,9.90
2022-10-05T08:09:59.036Z,11.27
2022-10-05T08:12:53.579Z,7.23
2022-10-05T08:15:25.538Z,11.33
2022-10-05T08:18:02.057Z,9.03
2022-10-05T08:20:34.555Z,6.13
2022-10-05T08:23:31.085Z,7.23
2022-10-05T08:26:35.693Z,10.53
2022-10-05T08:29:16.449Z,9.98
2022-10-05T08:31:50.045Z,11.47
2022-10-05T08:34:32.202Z,8.25
2022-10-05T08:37:30.688Z,7.93
2022-10-05T08:40:14.963Z,6.70
2022-10-05T08:43:00.115Z,10.07
2022-10-05T08:45:32.744Z,6.90
2022-10-05T08:48:42.879Z,9.00
2022-10-05T08:51:18.329Z,10.50
2022-10-05T08:54:09.260Z,8.25
2022-10-05T08:56:41.825Z,10.57
2022-10-05T08:59:32.949Z,7.07
2022-10-05T09:02:10.368Z,6.35
2022-10-05T09:05:12.483Z,9.02
2022-10-05T09:07:47.826Z,10.18
2022-10-05T09:10:35.348Z,8.15
2022-10-05T09:13:28.059Z,9.10
2022-10-05T09:16:27.137Z,6.22
2022-10-05T09:19:00.734Z,11.23
2022-10-05T09:21:54.136Z,9.18
2022-10-05T09:24:27.253Z,6.93
2022-10-05T09:27:16.837Z,7.53
2022-10-05T09:29:52.568Z,9.73
2022-10-05T09:32:34.705Z,7.70
2022-10-05T09:35:04.111Z,8.73
2022-10-05T09:37:48.993Z,8.30
2022-10-05T09:40:47.594Z,6.03
2022-10-05T09:43:44.816Z,7.35
2022-10-05T09:46:39.490Z,6.72
2022-10-05T09:49:24.059Z,9.32
2022-10-05T09:52:19.058Z,7.05
2022-10-05T09:55:25.618Z,7.28
2022-10-05T09:58:00.890Z,8.73
2022-10-05T10:01:08.907Z,8.15
2022-10-05T10:03:38.274Z,5.10
2022-10-05T10:06:19.921Z,7.00
2022-10-05T10:09:15.880Z,8.98
2022-10-05T10:12:46.898Z,9.77
2022-10-05T10:15:38.803Z,6.22
2022-10-05T10:18:23.759Z,9.18
2022-10-05T10:21:11.068Z,6.65
2022-10-05T10:24:33.091Z,9.35
2022-10-05T10:27:27.459Z,7.43
2022-10-05T10:30:36.797Z,7.97
2022-10-05T10:33:40.691Z,8.68
2022-10-05T10:36:24.130Z,9.50
2022-10-05T10:38:58.920Z,7.63
2022-10-05T10:41:34.026Z,11.73
2022-10-05T10:44:11.071Z,8.50
2022-10-05T10:47:14.118Z,5.00
2022-10-05T10:50:18.254Z,11.52
2022-10-05T10:53:21.868Z,8.02
2022-10-05T10:56:14.102Z,5.43
2022-10-05T10:59:01.898Z,7.25
2022-10-05T11:01:57.915Z,6.97
2022-10-05T11:05:18.168Z,9.07
2022-10-05T11:08:02.765Z,6.05
2022-10-05T11:10:29.503Z,8.35
2022-10-05T11:13:11.451Z,9.10
2022-10-05T11:15:50.251Z,8.90
2022-10-05T11:18:26.346Z,7.55
2022-10-05T11:21:26.190Z,14.93
2022-10-05T11:24:14.279Z,10.95
2022-10-05T11:27:02.394Z,7.53
2022-10-05T11:29:47.722Z,6.28
2022-10-05T11:32:22.851Z,14.30
2022-10-05T11:35:18.643Z,9.25
2022-10-05T11:37:54.182Z,10.52
2022-10-05T11:40:21.057Z,10.35
2022-10-05T11:43:17.259Z,15.43
2022-10-05T11:45:55.949Z,10.68
2022-10-05T11:48:26.878Z,11.45
2022-10-05T11:51:12.166Z,8.23
2022-10-05T11:53:52.286Z,10.77
2022-10-05T11:56:19.031Z,11.50
2022-10-05T11:58:58.205Z,8.82
2022-10-05T12:01:35.066Z,9.45
2022-10-05T12:04:27.798Z,10.00
2022-10-05T12:06:57.147Z,10.95
2022-10-05T12:10:06.601Z,7.88
2022-10-05T12:13:01.580Z,10.43
2022-10-05T12:15:57.013Z,10.82
2022-10-05T12:18:43.751Z,14.00
2022-10-05T12:21:27.622Z,10.40
2022-10-05T12:24:05.056Z,9.95
2022-10-05T12:26:50.584Z,10.05
2022-10-05T12:29:37.600Z,13.40
2022-10-05T12:32:17.478Z,12.43
2022-10-05T12:34:44.196Z,9.02
2022-10-05T12:37:52.090Z,9.70
2022-10-05T12:40:30.510Z,11.05
2022-10-05T12:43:07.566Z,8.95
2022-10-05T12:46:18.942Z,24.48
2022-10-05T12:49:01.856Z,37.17
2022-10-05T12:51:42.882Z,21.50
2022-10-05T12:54:24.685Z,10.35
2022-10-05T12:57:04.734Z,8.80
2022-10-05T12:59:50.246Z,8.02
2022-10-05T13:02:25.882Z,7.45
2022-10-05T13:05:11.672Z,10.80
2022-10-05T13:08:08.763Z,8.18
2022-10-05T13:10:46.731Z,6.57
2022-10-05T13:13:16.339Z,9.55
2022-10-05T13:16:04.793Z,8.63
2022-10-05T13:18:54.408Z,11.15
2022-10-05T13:21:48.738Z,6.35
2022-10-05T13:24:24.782Z,8.73
2022-10-05T13:27:03.980Z,8.80
2022-10-05T13:29:42.791Z,8.63
2022-10-05T13:32:21.476Z,6.18
2022-10-05T13:35:21.491Z,10.05
2022-10-05T13:38:03.360Z,7.60
2022-10-05T13:40:47.520Z,8.18
2022-10-05T13:43:26.998Z,8.38
2022-10-05T13:46:12.589Z,10.90
2022-10-05T13:49:12.896Z,8.80
2022-10-05T13:52:10.128Z,5.32
2022-10-05T13:54:51.135Z,9.23
2022-10-05T13:57:54.148Z,11.07
2022-10-05T14:00:25.664Z,8.13
2022-10-05T14:02:56.676Z,7.97
2022-10-05T14:05:28.490Z,10.70
2022-10-05T14:07:55.273Z,6.70
2022-10-05T14:10:34.195Z,6.18
2022-10-05T14:13:09.238Z,4.97
2022-10-05T14:15:41.272Z,5.15
2022-10-05T14:18:27.424Z,8.57
2022-10-05T14:21:03.336Z,8.15
2022-10-05T14:23:30.669Z,7.93
2022-10-05T14:25:57.851Z,5.35
2022-10-05T14:28:33.535Z,5.22
2022-10-05T14:31:01.606Z,6.88
2022-10-05T14:33:34.891Z,5.60
2022-10-05T14:36:02.561Z,6.70
2022-10-05T14:38:50.855Z,4.35
2022-10-05T14:41:19.168Z,5.70
2022-10-05T14:44:02.039Z,5.35
2022-10-05T14:46:32.732Z,8.68
2022-10-05T14:49:14.415Z,5.72
2022-10-05T14:51:42.805Z,10.20
2022-10-05T14:54:34.523Z,7.82
2022-10-05T14:57:06.725Z,6.70
2022-10-05T14:59:46.825Z,5.85
2022-10-05T15:02:23.348Z,7.20
2022-10-05T15:05:05.754Z,7.90
2022-10-05T15:07:49.244Z,4.65
2022-10-05T15:10:42.173Z,10.85
2022-10-05T15:13:24.219Z,7.43
2022-10-05T15:16:04.928Z,8.23
2022-10-05T15:18:48.791Z,6.68
2022-10-05T15:21:42.366Z,8.18
2022-10-05T15:24:27.966Z,8.32
2022-10-05T15:27:01.236Z,10.25
2022-10-05T15:29:56.443Z,9.55
2022-10-05T15:32:31.447Z,8.02
2022-10-05T15:35:10.926Z,11.40
2022-10-05T15:37:47.658Z,7.38
2022-10-05T15:40:36.693Z,9.85
2022-10-05T15:43:16.972Z,8.73
2022-10-05T15:45:57.153Z,7.82
2022-10-05T15:48:41.089Z,9.27
2022-10-05T15:51:37.216Z,7.88
2022-10-05T15:54:30.075Z,8.63
2022-10-05T15:57:08.075Z,8.32
2022-10-05T15:59:46.037Z,9.98
2022-10-05T16:02:29.908Z,8.85
2022-10-05T16:05:15.011Z,10.88
2022-10-05T16:08:10.825Z,10.90
2022-10-05T16:10:41.609Z,7.80
2022-10-05T16:13:19.107Z,9.95
2022-10-05T16:15:51.221Z,8.75
2022-10-05T16:18:20.868Z,9.25
2022-10-05T16:20:53.807Z,7.95
2022-10-05T16:23:45.436Z,10.15
2022-10-05T16:26:20.274Z,7.53
2022-10-05T16:29:23.922Z,11.50
2022-10-05T16:32:15.911Z,8.50
2022-10-05T16:35:18.531Z,12.35
2022-10-05T16:38:26.914Z,11.43
2022-10-05T16:41:16.780Z,14.40
2022-10-05T16:43:57.938Z,12.43
2022-10-05T16:46:39.586Z,9.13
2022-10-05T16:49:17.950Z,9.95
2022-10-05T16:51:44.673Z,10.23
2022-10-05T16:54:27.367Z,10.70
2022-10-05T16:57:17.652Z,10.45
2022-10-05T17:00:23.645Z,10.27
2022-10-05T17:02:56.264Z,8.65
2022-10-05T17:05:26.246Z,9.25
2022-10-05T17:08:26.542Z,9.15
2022-10-05T17:11:17.164Z,9.48
2022-10-05T17:14:02.450Z,8.82
2022-10-05T17:17:03.746Z,11.85
2022-10-05T17:19:46.662Z,12.77
2022-10-05T17:22:39.549Z,11.43
2022-10-05T17:25:24.299Z,12.73
2022-10-05T17:28:24.490Z,9.98
2022-10-05T17:31:12.059Z,9.48
2022-10-05T17:34:24.873Z,7.07
2022-10-05T17:36:57.781Z,10.05
2022-10-05T17:39:50.107Z,7.63
2022-10-05T17:42:29.230Z,9.15
2022-10-05T17:45:34.057Z,9.32
2022-10-05T17:48:33.306Z,8.95
2022-10-05T17:51:18.860Z,10.20
2022-10-05T17:54:04.382Z,6.97
2022-10-05T17:56:47.210Z,9.48
2022-10-05T17:59:45.927Z,8.87
2022-10-05T18:02:40.792Z,7.73
2022-10-05T18:05:14.500Z,9.95
2022-10-05T18:07:49.749Z,10.03
2022-10-05T18:10:24.537Z,9.03
2022-10-05T18:13:00.510Z,7.63
2022-10-05T18:15:27.227Z,9.60
2022-10-05T18:17:59.680Z,9.23
2022-10-05T18:20:26.575Z,7.65
2022-10-05T18:23:09.589Z,12.38
2022-10-05T18:25:52.316Z,8.20
2022-10-05T18:28:58.177Z,11.75
2022-10-05T18:31:45.352Z,10.67
2022-10-05T18:34:32.907Z,8.50
2022-10-05T18:37:39.188Z,13.50
2022-10-05T18:40:24.502Z,8.73
2022-10-05T18:43:03.427Z,10.90
2022-10-05T18:45:37.761Z,8.57
2022-10-05T18:48:22.788Z,7.80
2022-10-05T18:50:52.706Z,9.02
2022-10-05T18:53:38.190Z,6.97
2022-10-05T18:56:04.964Z,9.57
2022-10-05T18:58:35.872Z,8.47
2022-10-05T19:01:10.141Z,14.27
2022-10-05T19:03:51.368Z,10.37
2022-10-05T19:06:26.895Z,8.95
2022-10-05T19:08:53.931Z,8.63
2022-10-05T19:11:45.126Z,6.20
2022-10-05T19:14:20.819Z,9.07
2022-10-05T19:17:14.977Z,8.60
2022-10-05T19:20:20.457Z,9.27
2022-10-05T19:23:15.477Z,8.17
2022-10-05T19:25:54.990Z,7.23
2022-10-05T19:28:35.282Z,10.53
2022-10-05T19:31:02.263Z,10.43
2022-10-05T19:33:41.309Z,9.40
2022-10-05T19:36:11.093Z,9.30
2022-10-05T19:39:03.965Z,7.78
2022-10-05T19:42:05.854Z,8.23
2022-10-05T19:44:53.959Z,9.07
2022-10-05T19:47:44.253Z,9.13
2022-10-05T19:50:25.464Z,6.87
2022-10-05T19:53:24.200Z,9.90
2022-10-05T19:55:51.555Z,8.13
2022-10-05T19:58:27.322Z,6.30
2022-10-05T20:00:59.657Z,8.83
2022-10-05T20:03:29.522Z,9.27
2022-10-05T20:06:08.058Z,8.17
2022-10-05T20:08:39.483Z,9.67
2022-10-05T20:11:18.516Z,11.65
2022-10-05T20:14:09.440Z,8.53
2022-10-05T20:16:55.598Z,10.30
2022-10-05T20:19:50.238Z,8.97
2022-10-05T20:22:39.609Z,8.67
2022-10-05T20:25:31.034Z,8.70
2022-10-05T20:27:58.124Z,11.50
2022-10-05T20:30:28.088Z,8.40
2022-10-05T20:33:00.676Z,8.67
2022-10-05T20:35:30.716Z,10.67
2022-10-05T20:38:00.048Z,8.77
2022-10-05T20:40:29.238Z,9.20
2022-10-05T20:42:57.289Z,13.50
2022-10-05T20:45:24.455Z,10.40
2022-10-05T20:47:51.330Z,15.70
2022-10-05T20:50:18.532Z,9.40
2022-10-05T20:52:46.042Z,7.67
2022-10-05T20:55:13.053Z,11.70
2022-10-05T20:57:46.101Z,8.90
2022-10-05T21:00:13.680Z,8.93
2022-10-05T21:02:40.657Z,11.20
2022-10-05T21:05:08.245Z,8.13
2022-10-05T21:07:36.370Z,9.33
2022-10-05T21:10:03.877Z,9.67
2022-10-05T21:12:32.755Z,9.90
2022-10-05T21:15:00.019Z,12.93
2022-10-05T21:17:26.960Z,10.53
2022-10-05T21:19:53.754Z,9.17
2022-10-05T21:22:20.615Z,7.67
2022-10-05T21:24:48.455Z,9.37
2022-10-05T21:27:15.236Z,10.47
2022-10-05T21:29:42.224Z,8.17
2022-10-05T21:32:11.701Z,11.40
2022-10-05T21:34:40.054Z,6.80
2022-10-05T21:37:07.878Z,8.13
2022-10-05T21:39:35.395Z,11.13
2022-10-05T21:42:02.861Z,9.87
2022-10-05T21:44:29.904Z,9.47
2022-10-05T21:46:56.958Z,12.80
2022-10-05T21:49:25.143Z,9.50
2022-10-05T21:51:52.292Z,13.17
2022-10-05T21:54:22.393Z,9.10
2022-10-05T21:56:52.701Z,8.90
2022-10-05T21:59:24.425Z,11.03
2022-10-05T22:01:52.456Z,11.60
2022-10-05T22:04:19.291Z,9.13
2022-10-05T22:06:46.159Z,11.87
2022-10-05T22:09:12.977Z,12.50
2022-10-05T22:11:40.000Z,12.13
2022-10-05T22:14:07.031Z,13.63
2022-10-05T22:16:38.213Z,13.20
2022-10-05T22:19:07.035Z,8.60
2022-10-05T22:21:38.214Z,10.33
2022-10-05T22:24:05.606Z,11.47
2022-10-05T22:26:34.876Z,11.90
2022-10-05T22:29:02.582Z,10.57
2022-10-05T22:31:29.757Z,11.23
2022-10-05T22:33:56.807Z,11.87
2022-10-05T22:36:23.897Z,10.23
2022-10-05T22:38:51.732Z,10.67
2022-10-05T22:41:18.615Z,8.40
2022-10-05T22:43:50.149Z,9.87
2022-10-05T22:46:17.907Z,9.27
2022-10-05T22:48:44.888Z,11.87
2022-10-05T22:51:11.851Z,10.27
2022-10-05T22:53:39.789Z,11.80
2022-10-05T22:56:12.628Z,9.50
2022-10-05T22:58:41.392Z,10.57
2022-10-05T23:01:11.453Z,7.20
2022-10-05T23:03:38.529Z,10.50
2022-10-05T23:06:09.120Z,10.93
2022-10-05T23:08:37.686Z,13.53
2022-10-05T23:11:09.192Z,10.60
2022-10-05T23:13:36.450Z,9.60
2022-10-05T23:16:18.492Z,11.27
2022-10-05T23:18:49.072Z,9.37
2022-10-05T23:21:16.155Z,12.53
2022-10-05T23:23:47.458Z,11.27
2022-10-05T23:26:15.601Z,9.70
2022-10-05T23:28:46.624Z,16.53
2022-10-05T23:31:16.387Z,13.20
2022-10-05T23:33:43.320Z,10.60
2022-10-05T23:36:17.161Z,10.90
2022-10-05T23:38:45.058Z,11.93
2022-10-05T23:41:12.595Z,8.20
2022-10-05T23:43:40.191Z,13.47
2022-10-05T23:46:08.304Z,15.47
2022-10-05T23:48:38.310Z,12.47
2022-10-05T23:51:06.975Z,9.20
2022-10-05T23:53:34.132Z,12.33
2022-10-05T23:56:02.555Z,12.10
2022-10-05T23:58:30.040Z,9.43
